PWSweather.com
Personal Weather Stations
Station Observations
DEKREUPEL
Wsv De Kreupel, AndijkNL 1619 JV

Wsv De KreupelAndijkNL 1619 JV

Lat: 52.7417364, Lon: 5.1809356

Elevation: 33

Station Type: Rainwise MKiii LR

High Low Average
Temperature 57.2°F14.0°C 51.1°F10.6°C 53.9°F12.2°C
Dew Point 84.8°F29.3°C 77.8°F25.4°C 81.1°F27.3°C
Winds 16.2 mph 26.1 kmh Calm Calm 6.0 mph SW9.7 kmh SW
Wind Gusts 20.4 mph32.8 kmh -- 8.0 mph12.9 kmh
Humidity - - -
Pressure 30.29 in1025.7 mb 30.19 in1022.4 mb -
Precipitation 0.07 in1.8 mm - -
Hour Temp Dew Point Humidity Winds Wind Gusts Pressure Precip Precip Rate Daily Precip Total
12:04 AM 51.2°F10.7°C 78.0°F25.6°C - 1.0 mph SSE1.6 kmh SSE 1.8 mph2.9 kmh 30.28 in1025.4 mb 0.00 in0.0 mm 0.00 in0.0 mm 0.00 in0.0 mm
12:09 AM 51.1°F10.6°C 77.8°F25.4°C - 0.7 mph SSE1.1 kmh SSE 1.6 mph2.6 kmh 30.28 in1025.4 mb 0.00 in0.0 mm 0.00 in0.0 mm 0.00 in0.0 mm
12:14 AM 51.1°F10.6°C 77.9°F25.5°C - Calm Calm -- 30.28 in1025.4 mb 0.00 in0.0 mm 0.00 in0.0 mm 0.00 in0.0 mm
12:20 AM 51.2°F10.7°C 77.9°F25.5°C - Calm Calm -- 30.29 in1025.7 mb 0.00 in0.0 mm 0.00 in0.0 mm 0.00 in0.0 mm
12:24 AM 51.2°F10.7°C 78.0°F25.6°C - Calm Calm -- 30.28 in1025.4 mb 0.00 in0.0 mm 0.00 in0.0 mm 0.00 in0.0 mm
12:29 AM 51.3°F10.7°C 78.0°F25.6°C - Calm Calm -- 30.29 in1025.7 mb 0.00 in0.0 mm 0.00 in0.0 mm 0.00 in0.0 mm
12:34 AM 51.3°F10.7°C 78.2°F25.7°C - Calm Calm -- 30.28 in1025.4 mb 0.00 in0.0 mm 0.00 in0.0 mm 0.00 in0.0 mm
12:39 AM 51.3°F10.7°C 78.2°F25.7°C - 0.9 mph SSW1.4 kmh SSW 1.3 mph2.1 kmh 30.28 in1025.4 mb 0.00 in0.0 mm 0.00 in0.0 mm 0.00 in0.0 mm
12:44 AM 51.3°F10.7°C 78.0°F25.6°C - 1.8 mph SW2.9 kmh SW 2.2 mph3.5 kmh 30.28 in1025.4 mb 0.00 in0.0 mm 0.00 in0.0 mm 0.00 in0.0 mm
12:49 AM 51.3°F10.7°C 78.0°F25.6°C - 1.9 mph SW3.1 kmh SW 2.3 mph3.7 kmh 30.28 in1025.4 mb 0.00 in0.0 mm 0.00 in0.0 mm 0.00 in0.0 mm
12:54 AM 51.3°F10.7°C 78.0°F25.6°C - 2.3 mph SW3.7 kmh SW 2.8 mph4.5 kmh 30.28 in1025.4 mb 0.00 in0.0 mm 0.00 in0.0 mm 0.00 in0.0 mm
12:59 AM 51.2°F10.7°C 78.0°F25.6°C - 2.6 mph SW4.2 kmh SW 3.1 mph5.0 kmh 30.28 in1025.4 mb 0.00 in0.0 mm 0.00 in0.0 mm 0.00 in0.0 mm
01:04 AM 51.2°F10.7°C 77.9°F25.5°C - 2.8 mph SW4.5 kmh SW 3.2 mph5.1 kmh 30.28 in1025.4 mb 0.00 in0.0 mm 0.00 in0.0 mm 0.00 in0.0 mm
01:09 AM 51.2°F10.7°C 78.0°F25.6°C - 2.2 mph SW3.5 kmh SW 2.5 mph4.0 kmh 30.28 in1025.4 mb 0.00 in0.0 mm 0.00 in0.0 mm 0.00 in0.0 mm
01:14 AM 51.2°F10.7°C 78.0°F25.6°C - 2.6 mph SW4.2 kmh SW 3.2 mph5.1 kmh 30.28 in1025.4 mb 0.00 in0.0 mm 0.00 in0.0 mm 0.00 in0.0 mm
01:19 AM 51.2°F10.7°C 77.9°F25.5°C - 3.0 mph WSW4.8 kmh WSW 3.6 mph5.8 kmh 30.28 in1025.4 mb 0.00 in0.0 mm 0.00 in0.0 mm 0.00 in0.0 mm
01:25 AM 51.2°F10.7°C 77.9°F25.5°C - 3.7 mph WSW6.0 kmh WSW 4.3 mph6.9 kmh 30.28 in1025.4 mb 0.00 in0.0 mm 0.00 in0.0 mm 0.00 in0.0 mm
01:29 AM 51.2°F10.7°C 78.0°F25.6°C - 2.9 mph WSW4.7 kmh WSW 3.6 mph5.8 kmh 30.28 in1025.4 mb 0.00 in0.0 mm 0.00 in0.0 mm 0.00 in0.0 mm
01:34 AM 51.2°F10.7°C 77.9°F25.5°C - 2.5 mph SSW4.0 kmh SSW 3.2 mph5.1 kmh 30.28 in1025.4 mb 0.00 in0.0 mm 0.00 in0.0 mm 0.00 in0.0 mm
01:39 AM 51.2°F10.7°C 78.0°F25.6°C - 1.1 mph SSW1.8 kmh SSW 2.2 mph3.5 kmh 30.28 in1025.4 mb 0.00 in0.0 mm 0.00 in0.0 mm 0.00 in0.0 mm
01:44 AM 51.2°F10.7°C 78.0°F25.6°C - 2.3 mph SW3.7 kmh SW 2.8 mph4.5 kmh 30.28 in1025.4 mb 0.00 in0.0 mm 0.00 in0.0 mm 0.00 in0.0 mm
01:49 AM 51.3°F10.7°C 78.2°F25.7°C - 2.1 mph SW3.4 kmh SW 2.8 mph4.5 kmh 30.28 in1025.4 mb 0.00 in0.0 mm 0.00 in0.0 mm 0.00 in0.0 mm
01:54 AM 51.3°F10.7°C 78.2°F25.7°C - 1.6 mph SW2.6 kmh SW 2.3 mph3.7 kmh 30.28 in1025.4 mb 0.00 in0.0 mm 0.00 in0.0 mm 0.00 in0.0 mm
02:00 AM 51.2°F10.7°C 78.0°F25.6°C - Calm Calm -- 30.28 in1025.4 mb 0.00 in0.0 mm 0.00 in0.0 mm 0.00 in0.0 mm
02:04 AM 51.2°F10.7°C 77.9°F25.5°C - 1.6 mph SSW2.6 kmh SSW 2.2 mph3.5 kmh 30.28 in1025.4 mb 0.00 in0.0 mm 0.00 in0.0 mm 0.00 in0.0 mm
02:09 AM 51.1°F10.6°C 77.9°F25.5°C - 0.9 mph SSW1.4 kmh SSW 1.4 mph2.3 kmh 30.28 in1025.4 mb 0.00 in0.0 mm 0.00 in0.0 mm 0.00 in0.0 mm
02:14 AM 51.2°F10.7°C 78.0°F25.6°C - 2.0 mph WNW3.2 kmh WNW 2.5 mph4.0 kmh 30.28 in1025.4 mb 0.00 in0.0 mm 0.00 in0.0 mm 0.00 in0.0 mm
02:19 AM 51.3°F10.7°C 78.2°F25.7°C - Calm Calm -- 30.28 in1025.4 mb 0.00 in0.0 mm 0.00 in0.0 mm 0.00 in0.0 mm
02:24 AM 51.3°F10.7°C 78.2°F25.7°C - 0.5 mph WNW0.8 kmh WNW 0.8 mph1.3 kmh 30.28 in1025.4 mb 0.00 in0.0 mm 0.00 in0.0 mm 0.00 in0.0 mm
02:29 AM 51.5°F10.8°C 78.4°F25.8°C - 1.0 mph WNW1.6 kmh WNW 1.7 mph2.7 kmh 30.28 in1025.4 mb 0.00 in0.0 mm 0.00 in0.0 mm 0.00 in0.0 mm
02:34 AM 51.6°F10.9°C 78.5°F25.8°C - 1.1 mph W1.8 kmh W 1.4 mph2.3 kmh 30.28 in1025.4 mb 0.00 in0.0 mm 0.00 in0.0 mm 0.00 in0.0 mm
02:39 AM 51.6°F10.9°C 78.5°F25.8°C - 2.1 mph WNW3.4 kmh WNW 2.7 mph4.3 kmh 30.28 in1025.4 mb 0.00 in0.0 mm 0.00 in0.0 mm 0.00 in0.0 mm
02:44 AM 51.7°F10.9°C 78.6°F25.9°C - 3.3 mph WNW5.3 kmh WNW 4.0 mph6.4 kmh 30.28 in1025.4 mb 0.00 in0.0 mm 0.00 in0.0 mm 0.00 in0.0 mm
02:49 AM 51.7°F10.9°C 78.6°F25.9°C - 3.5 mph WNW5.6 kmh WNW 3.9 mph6.3 kmh 30.28 in1025.4 mb 0.00 in0.0 mm 0.00 in0.0 mm 0.00 in0.0 mm
02:54 AM 51.7°F10.9°C 78.6°F25.9°C - 4.9 mph WNW7.9 kmh WNW 5.9 mph9.5 kmh 30.29 in1025.7 mb 0.00 in0.0 mm 0.00 in0.0 mm 0.00 in0.0 mm
02:59 AM 51.8°F11.0°C 78.6°F25.9°C - 5.1 mph WNW8.2 kmh WNW 5.6 mph9.0 kmh 30.29 in1025.7 mb 0.00 in0.0 mm 0.00 in0.0 mm 0.00 in0.0 mm
03:04 AM 51.7°F10.9°C 78.5°F25.8°C - 5.0 mph WNW8.0 kmh WNW 5.7 mph9.2 kmh 30.29 in1025.7 mb 0.00 in0.0 mm 0.00 in0.0 mm 0.00 in0.0 mm
03:09 AM 51.7°F10.9°C 78.6°F25.9°C - 4.2 mph W6.8 kmh W 4.7 mph7.6 kmh 30.29 in1025.7 mb 0.00 in0.0 mm 0.00 in0.0 mm 0.00 in0.0 mm
03:14 AM 51.7°F10.9°C 78.6°F25.9°C - 3.5 mph W5.6 kmh W 4.2 mph6.8 kmh 30.29 in1025.7 mb 0.00 in0.0 mm 0.00 in0.0 mm 0.00 in0.0 mm
03:19 AM 51.7°F10.9°C 78.6°F25.9°C - 4.1 mph W6.6 kmh W 5.5 mph8.9 kmh 30.29 in1025.7 mb 0.00 in0.0 mm 0.00 in0.0 mm 0.00 in0.0 mm
03:24 AM 51.6°F10.9°C 78.5°F25.8°C - 3.8 mph W6.1 kmh W 4.6 mph7.4 kmh 30.29 in1025.7 mb 0.00 in0.0 mm 0.00 in0.0 mm 0.00 in0.0 mm
03:29 AM 51.6°F10.9°C 78.5°F25.8°C - 3.3 mph W5.3 kmh W 4.0 mph6.4 kmh 30.29 in1025.7 mb 0.00 in0.0 mm 0.00 in0.0 mm 0.00 in0.0 mm
03:34 AM 51.5°F10.8°C 78.4°F25.8°C - 2.4 mph W3.9 kmh W 2.8 mph4.5 kmh 30.29 in1025.7 mb 0.00 in0.0 mm 0.00 in0.0 mm 0.00 in0.0 mm
03:39 AM 51.3°F10.7°C 78.0°F25.6°C - 3.0 mph SW4.8 kmh SW 3.6 mph5.8 kmh 30.28 in1025.4 mb 0.00 in0.0 mm 0.00 in0.0 mm 0.00 in0.0 mm
03:44 AM 51.3°F10.7°C 78.0°F25.6°C - 2.7 mph SSW4.3 kmh SSW 3.4 mph5.5 kmh 30.28 in1025.4 mb 0.00 in0.0 mm 0.00 in0.0 mm 0.00 in0.0 mm
03:49 AM 51.3°F10.7°C 78.2°F25.7°C - 3.2 mph SSW5.1 kmh SSW 4.3 mph6.9 kmh 30.28 in1025.4 mb 0.00 in0.0 mm 0.00 in0.0 mm 0.00 in0.0 mm
03:54 AM 51.2°F10.7°C 78.0°F25.6°C - 4.3 mph SSW6.9 kmh SSW 5.2 mph8.4 kmh 30.28 in1025.4 mb 0.00 in0.0 mm 0.00 in0.0 mm 0.00 in0.0 mm
03:59 AM 51.2°F10.7°C 78.0°F25.6°C - 4.2 mph SSW6.8 kmh SSW 5.5 mph8.9 kmh 30.27 in1025.1 mb 0.00 in0.0 mm 0.00 in0.0 mm 0.00 in0.0 mm
04:04 AM 51.2°F10.7°C 77.9°F25.5°C - 2.3 mph SW3.7 kmh SW 3.5 mph5.6 kmh 30.27 in1025.1 mb 0.00 in0.0 mm 0.00 in0.0 mm 0.00 in0.0 mm
04:09 AM 51.3°F10.7°C 78.0°F25.6°C - 2.8 mph WNW4.5 kmh WNW 4.4 mph7.1 kmh 30.27 in1025.1 mb 0.00 in0.0 mm 0.00 in0.0 mm 0.00 in0.0 mm
04:14 AM 51.5°F10.8°C 78.4°F25.8°C - 4.8 mph SSW7.7 kmh SSW 5.6 mph9.0 kmh 30.27 in1025.1 mb 0.00 in0.0 mm 0.00 in0.0 mm 0.00 in0.0 mm
04:19 AM 51.3°F10.7°C 78.2°F25.7°C - 4.6 mph SSW7.4 kmh SSW 6.7 mph10.8 kmh 30.26 in1024.7 mb 0.00 in0.0 mm 0.00 in0.0 mm 0.00 in0.0 mm
04:24 AM 51.2°F10.7°C 78.0°F25.6°C - 6.0 mph S9.7 kmh S 7.7 mph12.4 kmh 30.26 in1024.7 mb 0.00 in0.0 mm 0.00 in0.0 mm 0.00 in0.0 mm
04:29 AM 51.3°F10.7°C 78.2°F25.7°C - 4.8 mph SSW7.7 kmh SSW 7.3 mph11.7 kmh 30.26 in1024.7 mb 0.00 in0.0 mm 0.00 in0.0 mm 0.00 in0.0 mm
04:34 AM 51.4°F10.8°C 78.3°F25.7°C - 2.9 mph SSW4.7 kmh SSW 4.4 mph7.1 kmh 30.26 in1024.7 mb 0.00 in0.0 mm 0.00 in0.0 mm 0.00 in0.0 mm
04:39 AM 51.5°F10.8°C 78.4°F25.8°C - 1.2 mph SW1.9 kmh SW 2.4 mph3.9 kmh 30.26 in1024.7 mb 0.00 in0.0 mm 0.00 in0.0 mm 0.00 in0.0 mm
04:44 AM 51.5°F10.8°C 78.4°F25.8°C - 2.0 mph S3.2 kmh S 3.0 mph4.8 kmh 30.26 in1024.7 mb 0.00 in0.0 mm 0.00 in0.0 mm 0.00 in0.0 mm
04:49 AM 51.6°F10.9°C 78.5°F25.8°C - 0.5 mph SW0.8 kmh SW 1.6 mph2.6 kmh 30.27 in1025.1 mb 0.00 in0.0 mm 0.00 in0.0 mm 0.00 in0.0 mm
04:54 AM 51.7°F10.9°C 78.6°F25.9°C - 2.4 mph WSW3.9 kmh WSW 3.4 mph5.5 kmh 30.27 in1025.1 mb 0.00 in0.0 mm 0.00 in0.0 mm 0.00 in0.0 mm
04:59 AM 51.7°F10.9°C 78.6°F25.9°C - 3.7 mph WSW6.0 kmh WSW 4.5 mph7.2 kmh 30.27 in1025.1 mb 0.00 in0.0 mm 0.00 in0.0 mm 0.00 in0.0 mm
05:04 AM 51.8°F11.0°C 78.6°F25.9°C - 3.3 mph WNW5.3 kmh WNW 4.4 mph7.1 kmh 30.27 in1025.1 mb 0.00 in0.0 mm 0.00 in0.0 mm 0.00 in0.0 mm
05:09 AM 52.0°F11.1°C 78.9°F26.1°C - 0.7 mph NW1.1 kmh NW 2.4 mph3.9 kmh 30.27 in1025.1 mb 0.00 in0.0 mm 0.00 in0.0 mm 0.00 in0.0 mm
05:14 AM 52.1°F11.2°C 79.0°F26.1°C - 3.3 mph WSW5.3 kmh WSW 4.2 mph6.8 kmh 30.27 in1025.1 mb 0.00 in0.0 mm 0.00 in0.0 mm 0.00 in0.0 mm
05:19 AM 52.1°F11.2°C 79.0°F26.1°C - 2.9 mph SSW4.7 kmh SSW 3.9 mph6.3 kmh 30.26 in1024.7 mb 0.00 in0.0 mm 0.00 in0.0 mm 0.00 in0.0 mm
05:24 AM 52.0°F11.1°C 78.9°F26.1°C - 4.0 mph SSW6.4 kmh SSW 5.0 mph8.0 kmh 30.26 in1024.7 mb 0.00 in0.0 mm 0.00 in0.0 mm 0.00 in0.0 mm
05:29 AM 51.9°F11.1°C 78.8°F26.0°C - 4.4 mph SSW7.1 kmh SSW 5.7 mph9.2 kmh 30.26 in1024.7 mb 0.00 in0.0 mm 0.00 in0.0 mm 0.00 in0.0 mm
05:34 AM 51.8°F11.0°C 78.7°F25.9°C - 5.2 mph SW8.4 kmh SW 7.1 mph11.4 kmh 30.26 in1024.7 mb 0.00 in0.0 mm 0.00 in0.0 mm 0.00 in0.0 mm
05:39 AM 51.7°F10.9°C 78.6°F25.9°C - 3.7 mph SW6.0 kmh SW 5.2 mph8.4 kmh 30.26 in1024.7 mb 0.00 in0.0 mm 0.00 in0.0 mm 0.00 in0.0 mm
05:44 AM 51.8°F11.0°C 78.6°F25.9°C - 3.9 mph WSW6.3 kmh WSW 5.5 mph8.9 kmh 30.26 in1024.7 mb 0.00 in0.0 mm 0.00 in0.0 mm 0.00 in0.0 mm
05:49 AM 51.7°F10.9°C 78.5°F25.8°C - 2.3 mph WSW3.7 kmh WSW 4.3 mph6.9 kmh 30.26 in1024.7 mb 0.00 in0.0 mm 0.00 in0.0 mm 0.00 in0.0 mm
05:54 AM 51.7°F10.9°C 78.6°F25.9°C - Calm Calm -- 30.26 in1024.7 mb 0.00 in0.0 mm 0.00 in0.0 mm 0.00 in0.0 mm
05:59 AM 51.7°F10.9°C 78.6°F25.9°C - 2.1 mph WSW3.4 kmh WSW 3.9 mph6.3 kmh 30.26 in1024.7 mb 0.00 in0.0 mm 0.00 in0.0 mm 0.00 in0.0 mm
06:04 AM 51.8°F11.0°C 78.7°F25.9°C - 3.9 mph WSW6.3 kmh WSW 4.9 mph7.9 kmh 30.26 in1024.7 mb 0.00 in0.0 mm 0.00 in0.0 mm 0.00 in0.0 mm
06:09 AM 51.8°F11.0°C 78.7°F25.9°C - 2.9 mph WSW4.7 kmh WSW 5.1 mph8.2 kmh 30.26 in1024.7 mb 0.00 in0.0 mm 0.00 in0.0 mm 0.00 in0.0 mm
06:14 AM 51.7°F10.9°C 78.6°F25.9°C - 2.8 mph WSW4.5 kmh WSW 5.5 mph8.9 kmh 30.26 in1024.7 mb 0.00 in0.0 mm 0.00 in0.0 mm 0.00 in0.0 mm
06:20 AM 51.8°F11.0°C 78.7°F25.9°C - 2.1 mph WSW3.4 kmh WSW 4.8 mph7.7 kmh 30.26 in1024.7 mb 0.00 in0.0 mm 0.00 in0.0 mm 0.00 in0.0 mm
06:24 AM 51.8°F11.0°C 78.7°F25.9°C - 3.5 mph WSW5.6 kmh WSW 5.4 mph8.7 kmh 30.26 in1024.7 mb 0.00 in0.0 mm 0.00 in0.0 mm 0.00 in0.0 mm
06:29 AM 51.8°F11.0°C 78.7°F25.9°C - 2.5 mph WSW4.0 kmh WSW 5.5 mph8.9 kmh 30.26 in1024.7 mb 0.00 in0.0 mm 0.00 in0.0 mm 0.00 in0.0 mm
06:34 AM 51.8°F11.0°C 78.6°F25.9°C - 0.7 mph SW1.1 kmh SW 4.6 mph7.4 kmh 30.27 in1025.1 mb 0.00 in0.0 mm 0.00 in0.0 mm 0.00 in0.0 mm
06:39 AM 51.7°F10.9°C 78.6°F25.9°C - 1.3 mph WSW2.1 kmh WSW 3.3 mph5.3 kmh 30.27 in1025.1 mb 0.00 in0.0 mm 0.00 in0.0 mm 0.00 in0.0 mm
06:44 AM 51.7°F10.9°C 78.6°F25.9°C - 0.1 mph SSW0.2 kmh SSW 2.0 mph3.2 kmh 30.27 in1025.1 mb 0.00 in0.0 mm 0.00 in0.0 mm 0.00 in0.0 mm
06:49 AM 51.7°F10.9°C 78.6°F25.9°C - Calm Calm 0.4 mph0.6 kmh 30.26 in1024.7 mb 0.00 in0.0 mm 0.00 in0.0 mm 0.00 in0.0 mm
06:54 AM 51.7°F10.9°C 78.6°F25.9°C - 0.2 mph SSW0.3 kmh SSW 1.6 mph2.6 kmh 30.26 in1024.7 mb 0.00 in0.0 mm 0.00 in0.0 mm 0.00 in0.0 mm
06:59 AM 51.7°F10.9°C 78.6°F25.9°C - Calm Calm -- 30.26 in1024.7 mb 0.00 in0.0 mm 0.00 in0.0 mm 0.00 in0.0 mm
07:05 AM 51.7°F10.9°C 78.6°F25.9°C - 0.1 mph SSW0.2 kmh SSW 1.9 mph3.1 kmh 30.26 in1024.7 mb 0.00 in0.0 mm 0.00 in0.0 mm 0.00 in0.0 mm
07:09 AM 51.7°F10.9°C 78.6°F25.9°C - 0.2 mph SW0.3 kmh SW 2.0 mph3.2 kmh 30.26 in1024.7 mb 0.00 in0.0 mm 0.00 in0.0 mm 0.00 in0.0 mm
07:14 AM 51.7°F10.9°C 78.6°F25.9°C - 0.4 mph SSW0.6 kmh SSW 2.4 mph3.9 kmh 30.26 in1024.7 mb 0.00 in0.0 mm 0.00 in0.0 mm 0.00 in0.0 mm
07:19 AM 51.8°F11.0°C 78.7°F25.9°C - 0.6 mph SW1.0 kmh SW 3.4 mph5.5 kmh 30.26 in1024.7 mb 0.00 in0.0 mm 0.00 in0.0 mm 0.00 in0.0 mm
07:25 AM 51.8°F11.0°C 78.7°F25.9°C - Calm Calm 1.4 mph2.3 kmh 30.27 in1025.1 mb 0.00 in0.0 mm 0.00 in0.0 mm 0.00 in0.0 mm
07:29 AM 51.8°F11.0°C 78.7°F25.9°C - 0.4 mph SW0.6 kmh SW 2.4 mph3.9 kmh 30.26 in1024.7 mb 0.00 in0.0 mm 0.00 in0.0 mm 0.00 in0.0 mm
07:34 AM 51.8°F11.0°C 78.7°F25.9°C - 0.2 mph SW0.3 kmh SW 2.7 mph4.3 kmh 30.26 in1024.7 mb 0.00 in0.0 mm 0.00 in0.0 mm 0.00 in0.0 mm
07:39 AM 51.8°F11.0°C 78.6°F25.9°C - 0.1 mph SW0.2 kmh SW 1.3 mph2.1 kmh 30.26 in1024.7 mb 0.00 in0.0 mm 0.00 in0.0 mm 0.00 in0.0 mm
07:44 AM 51.7°F10.9°C 78.5°F25.8°C - 0.1 mph SW0.2 kmh SW 1.9 mph3.1 kmh 30.26 in1024.7 mb 0.00 in0.0 mm 0.00 in0.0 mm 0.00 in0.0 mm
07:49 AM 51.8°F11.0°C 78.7°F25.9°C - Calm Calm 0.4 mph0.6 kmh 30.26 in1024.7 mb 0.00 in0.0 mm 0.00 in0.0 mm 0.00 in0.0 mm
07:54 AM 51.7°F10.9°C 78.6°F25.9°C - Calm Calm 0.3 mph0.5 kmh 30.26 in1024.7 mb 0.00 in0.0 mm 0.00 in0.0 mm 0.00 in0.0 mm
07:59 AM 51.7°F10.9°C 78.6°F25.9°C - 1.6 mph SW2.6 kmh SW 5.9 mph9.5 kmh 30.27 in1025.1 mb 0.00 in0.0 mm 0.00 in0.0 mm 0.00 in0.0 mm
08:04 AM 51.7°F10.9°C 78.6°F25.9°C - 2.5 mph SW4.0 kmh SW 5.3 mph8.5 kmh 30.26 in1024.7 mb 0.00 in0.0 mm 0.00 in0.0 mm 0.00 in0.0 mm
08:09 AM 51.7°F10.9°C 78.5°F25.8°C - 2.3 mph SW3.7 kmh SW 5.9 mph9.5 kmh 30.27 in1025.1 mb 0.00 in0.0 mm 0.00 in0.0 mm 0.00 in0.0 mm
08:14 AM 51.7°F10.9°C 78.5°F25.8°C - 0.6 mph SW1.0 kmh SW 3.4 mph5.5 kmh 30.27 in1025.1 mb 0.00 in0.0 mm 0.00 in0.0 mm 0.00 in0.0 mm
08:19 AM 51.7°F10.9°C 78.6°F25.9°C - 5.9 mph SW9.5 kmh SW 7.6 mph12.2 kmh 30.27 in1025.1 mb 0.00 in0.0 mm 0.00 in0.0 mm 0.00 in0.0 mm
08:25 AM 51.7°F10.9°C 78.6°F25.9°C - 6.5 mph SW10.5 kmh SW 8.0 mph12.9 kmh 30.27 in1025.1 mb 0.00 in0.0 mm 0.00 in0.0 mm 0.00 in0.0 mm
08:29 AM 51.7°F10.9°C 78.6°F25.9°C - 6.2 mph SW10.0 kmh SW 7.9 mph12.7 kmh 30.26 in1024.7 mb 0.00 in0.0 mm 0.00 in0.0 mm 0.00 in0.0 mm
08:34 AM 51.7°F10.9°C 78.6°F25.9°C - 7.4 mph SW11.9 kmh SW 9.6 mph15.4 kmh 30.26 in1024.7 mb 0.00 in0.0 mm 0.00 in0.0 mm 0.00 in0.0 mm
08:39 AM 51.7°F10.9°C 78.6°F25.9°C - 6.9 mph SSW11.1 kmh SSW 9.1 mph14.6 kmh 30.26 in1024.7 mb 0.00 in0.0 mm 0.00 in0.0 mm 0.00 in0.0 mm
08:45 AM 51.7°F10.9°C 78.6°F25.9°C - 7.7 mph SSW12.4 kmh SSW 9.9 mph15.9 kmh 30.26 in1024.7 mb 0.00 in0.0 mm 0.00 in0.0 mm 0.00 in0.0 mm
08:49 AM 51.8°F11.0°C 78.7°F25.9°C - 7.4 mph SW11.9 kmh SW 9.6 mph15.4 kmh 30.26 in1024.7 mb 0.00 in0.0 mm 0.00 in0.0 mm 0.00 in0.0 mm
08:54 AM 51.8°F11.0°C 78.7°F25.9°C - 7.0 mph SW11.3 kmh SW 9.3 mph15.0 kmh 30.26 in1024.7 mb 0.00 in0.0 mm 0.00 in0.0 mm 0.00 in0.0 mm
08:59 AM 51.8°F11.0°C 78.7°F25.9°C - 6.9 mph SW11.1 kmh SW 9.4 mph15.1 kmh 30.26 in1024.7 mb 0.00 in0.0 mm 0.00 in0.0 mm 0.00 in0.0 mm
09:04 AM 51.8°F11.0°C 78.7°F25.9°C - 6.7 mph SSW10.8 kmh SSW 9.1 mph14.6 kmh 30.26 in1024.7 mb 0.00 in0.0 mm 0.00 in0.0 mm 0.00 in0.0 mm
09:09 AM 52.0°F11.1°C 78.9°F26.1°C - 7.1 mph SW11.4 kmh SW 9.5 mph15.3 kmh 30.26 in1024.7 mb 0.00 in0.0 mm 0.00 in0.0 mm 0.00 in0.0 mm
09:14 AM 52.1°F11.2°C 79.0°F26.1°C - 7.9 mph SW12.7 kmh SW 11.1 mph17.9 kmh 30.27 in1025.1 mb 0.00 in0.0 mm 0.00 in0.0 mm 0.00 in0.0 mm
09:19 AM 52.1°F11.2°C 79.0°F26.1°C - 7.5 mph SW12.1 kmh SW 10.2 mph16.4 kmh 30.26 in1024.7 mb 0.00 in0.0 mm 0.00 in0.0 mm 0.00 in0.0 mm
09:24 AM 52.1°F11.2°C 79.0°F26.1°C - 7.1 mph SW11.4 kmh SW 9.3 mph15.0 kmh 30.26 in1024.7 mb 0.00 in0.0 mm 0.00 in0.0 mm 0.00 in0.0 mm
09:29 AM 52.2°F11.2°C 79.2°F26.2°C - 7.0 mph SW11.3 kmh SW 8.8 mph14.2 kmh 30.26 in1024.7 mb 0.00 in0.0 mm 0.00 in0.0 mm 0.00 in0.0 mm
09:34 AM 52.2°F11.2°C 79.0°F26.1°C - 8.3 mph SW13.4 kmh SW 10.8 mph17.4 kmh 30.26 in1024.7 mb 0.00 in0.0 mm 0.00 in0.0 mm 0.00 in0.0 mm
09:39 AM 52.2°F11.2°C 79.2°F26.2°C - 7.6 mph SW12.2 kmh SW 10.2 mph16.4 kmh 30.26 in1024.7 mb 0.00 in0.0 mm 0.00 in0.0 mm 0.00 in0.0 mm
09:44 AM 52.2°F11.2°C 79.2°F26.2°C - 7.1 mph SW11.4 kmh SW 9.7 mph15.6 kmh 30.26 in1024.7 mb 0.00 in0.0 mm 0.00 in0.0 mm 0.00 in0.0 mm
09:49 AM 52.2°F11.2°C 79.2°F26.2°C - 7.8 mph SW12.6 kmh SW 9.5 mph15.3 kmh 30.26 in1024.7 mb 0.00 in0.0 mm 0.00 in0.0 mm 0.00 in0.0 mm
09:54 AM 52.1°F11.2°C 79.0°F26.1°C - 6.4 mph SW10.3 kmh SW 8.5 mph13.7 kmh 30.26 in1024.7 mb 0.00 in0.0 mm 0.00 in0.0 mm 0.00 in0.0 mm
09:59 AM 52.1°F11.2°C 79.0°F26.1°C - 7.1 mph SW11.4 kmh SW 9.2 mph14.8 kmh 30.26 in1024.7 mb 0.00 in0.0 mm 0.00 in0.0 mm 0.00 in0.0 mm
10:04 AM 52.2°F11.2°C 79.2°F26.2°C - 6.9 mph SW11.1 kmh SW 9.1 mph14.6 kmh 30.26 in1024.7 mb 0.00 in0.0 mm 0.00 in0.0 mm 0.00 in0.0 mm
10:09 AM 52.5°F11.4°C 79.4°F26.3°C - 7.7 mph SW12.4 kmh SW 10.8 mph17.4 kmh 30.26 in1024.7 mb 0.00 in0.0 mm 0.00 in0.0 mm 0.00 in0.0 mm
10:15 AM 52.9°F11.6°C 79.9°F26.6°C - 8.7 mph SW14.0 kmh SW 11.1 mph17.9 kmh 30.25 in1024.4 mb 0.00 in0.0 mm 0.00 in0.0 mm 0.00 in0.0 mm
10:19 AM 53.2°F11.8°C 80.2°F26.8°C - 7.5 mph SW12.1 kmh SW 11.5 mph18.5 kmh 30.25 in1024.4 mb 0.00 in0.0 mm 0.00 in0.0 mm 0.00 in0.0 mm
10:24 AM 53.5°F11.9°C 80.5°F26.9°C - 7.6 mph SW12.2 kmh SW 10.1 mph16.3 kmh 30.25 in1024.4 mb 0.00 in0.0 mm 0.00 in0.0 mm 0.00 in0.0 mm
10:29 AM 53.7°F12.1°C 80.8°F27.1°C - 7.2 mph SW11.6 kmh SW 9.7 mph15.6 kmh 30.25 in1024.4 mb 0.00 in0.0 mm 0.00 in0.0 mm 0.00 in0.0 mm
10:34 AM 53.7°F12.1°C 80.8°F27.1°C - 5.9 mph SW9.5 kmh SW 8.5 mph13.7 kmh 30.25 in1024.4 mb 0.00 in0.0 mm 0.00 in0.0 mm 0.00 in0.0 mm
10:39 AM 53.7°F12.1°C 80.8°F27.1°C - 7.4 mph SW11.9 kmh SW 10.5 mph16.9 kmh 30.25 in1024.4 mb 0.00 in0.0 mm 0.00 in0.0 mm 0.00 in0.0 mm
10:44 AM 53.8°F12.1°C 81.0°F27.2°C - 7.8 mph SW12.6 kmh SW 10.9 mph17.5 kmh 30.26 in1024.7 mb 0.00 in0.0 mm 0.00 in0.0 mm 0.00 in0.0 mm
10:49 AM 53.7°F12.1°C 80.8°F27.1°C - 9.5 mph SW15.3 kmh SW 12.8 mph20.6 kmh 30.25 in1024.4 mb 0.00 in0.0 mm 0.00 in0.0 mm 0.00 in0.0 mm
10:54 AM 53.7°F12.1°C 80.8°F27.1°C - 8.9 mph SW14.3 kmh SW 11.5 mph18.5 kmh 30.25 in1024.4 mb 0.00 in0.0 mm 0.00 in0.0 mm 0.00 in0.0 mm
10:59 AM 53.5°F11.9°C 80.5°F26.9°C - 8.0 mph WSW12.9 kmh WSW 11.2 mph18.0 kmh 30.26 in1024.7 mb 0.00 in0.0 mm 0.00 in0.0 mm 0.00 in0.0 mm
11:04 AM 53.5°F11.9°C 80.6°F27.0°C - 7.0 mph WSW11.3 kmh WSW 10.7 mph17.2 kmh 30.26 in1024.7 mb 0.00 in0.0 mm 0.00 in0.0 mm 0.00 in0.0 mm
11:09 AM 53.5°F11.9°C 80.6°F27.0°C - 4.8 mph SW7.7 kmh SW 10.5 mph16.9 kmh 30.26 in1024.7 mb 0.00 in0.0 mm 0.00 in0.0 mm 0.00 in0.0 mm
11:14 AM 53.6°F12.0°C 80.7°F27.1°C - 7.7 mph SW12.4 kmh SW 11.2 mph18.0 kmh 30.26 in1024.7 mb 0.00 in0.0 mm 0.00 in0.0 mm 0.00 in0.0 mm
11:19 AM 53.7°F12.1°C 80.8°F27.1°C - 6.9 mph SW11.1 kmh SW 9.7 mph15.6 kmh 30.26 in1024.7 mb 0.00 in0.0 mm 0.00 in0.0 mm 0.00 in0.0 mm
11:24 AM 54.0°F12.2°C 81.1°F27.3°C - 8.0 mph SW12.9 kmh SW 11.9 mph19.2 kmh 30.26 in1024.7 mb 0.00 in0.0 mm 0.00 in0.0 mm 0.00 in0.0 mm
11:29 AM 54.2°F12.3°C 81.4°F27.4°C - 8.8 mph SW14.2 kmh SW 11.6 mph18.7 kmh 30.26 in1024.7 mb 0.00 in0.0 mm 0.00 in0.0 mm 0.00 in0.0 mm
11:34 AM 54.2°F12.3°C 81.4°F27.4°C - 7.8 mph SW12.6 kmh SW 10.7 mph17.2 kmh 30.25 in1024.4 mb 0.00 in0.0 mm 0.00 in0.0 mm 0.00 in0.0 mm
11:39 AM 54.4°F12.4°C 81.5°F27.5°C - 9.0 mph WSW14.5 kmh WSW 11.2 mph18.0 kmh 30.25 in1024.4 mb 0.00 in0.0 mm 0.00 in0.0 mm 0.00 in0.0 mm
11:45 AM 54.6°F12.6°C 81.7°F27.6°C - 8.4 mph SW13.5 kmh SW 11.2 mph18.0 kmh 30.25 in1024.4 mb 0.00 in0.0 mm 0.00 in0.0 mm 0.00 in0.0 mm
11:49 AM 54.7°F12.6°C 82.0°F27.8°C - 9.4 mph WSW15.1 kmh WSW 12.8 mph20.6 kmh 30.24 in1024.0 mb 0.00 in0.0 mm 0.00 in0.0 mm 0.00 in0.0 mm
11:54 AM 54.8°F12.7°C 82.1°F27.8°C - 10.3 mph SW16.6 kmh SW 14.0 mph22.5 kmh 30.24 in1024.0 mb 0.00 in0.0 mm 0.00 in0.0 mm 0.00 in0.0 mm
11:59 AM 55.1°F12.8°C 82.4°F28.0°C - 9.6 mph WSW15.4 kmh WSW 12.5 mph20.1 kmh 30.24 in1024.0 mb 0.00 in0.0 mm 0.00 in0.0 mm 0.00 in0.0 mm
12:04 PM 55.2°F12.9°C 82.4°F28.0°C - 8.5 mph WSW13.7 kmh WSW 11.3 mph18.2 kmh 30.24 in1024.0 mb 0.00 in0.0 mm 0.00 in0.0 mm 0.00 in0.0 mm
12:09 PM 55.5°F13.1°C 82.8°F28.2°C - 8.9 mph WSW14.3 kmh WSW 12.3 mph19.8 kmh 30.24 in1024.0 mb 0.00 in0.0 mm 0.00 in0.0 mm 0.00 in0.0 mm
12:14 PM 55.5°F13.1°C 82.9°F28.3°C - 9.2 mph WSW14.8 kmh WSW 12.4 mph20.0 kmh 30.24 in1024.0 mb 0.00 in0.0 mm 0.00 in0.0 mm 0.00 in0.0 mm
12:19 PM 55.5°F13.1°C 82.9°F28.3°C - 11.6 mph WSW18.7 kmh WSW 14.7 mph23.7 kmh 30.24 in1024.0 mb 0.00 in0.0 mm 0.00 in0.0 mm 0.00 in0.0 mm
12:24 PM 55.6°F13.1°C 83.0°F28.3°C - 8.6 mph WSW13.8 kmh WSW 11.7 mph18.8 kmh 30.23 in1023.7 mb 0.00 in0.0 mm 0.00 in0.0 mm 0.00 in0.0 mm
12:29 PM 55.6°F13.1°C 83.0°F28.3°C - 10.3 mph WSW16.6 kmh WSW 13.6 mph21.9 kmh 30.23 in1023.7 mb 0.00 in0.0 mm 0.00 in0.0 mm 0.00 in0.0 mm
12:34 PM 55.7°F13.2°C 83.1°F28.4°C - 11.0 mph WSW17.7 kmh WSW 14.5 mph23.3 kmh 30.23 in1023.7 mb 0.00 in0.0 mm 0.00 in0.0 mm 0.00 in0.0 mm
12:39 PM 55.7°F13.2°C 83.0°F28.3°C - 9.7 mph WSW15.6 kmh WSW 13.1 mph21.1 kmh 30.23 in1023.7 mb 0.00 in0.0 mm 0.00 in0.0 mm 0.00 in0.0 mm
12:44 PM 55.7°F13.2°C 83.1°F28.4°C - 11.8 mph WSW19.0 kmh WSW 16.7 mph26.9 kmh 30.23 in1023.7 mb 0.00 in0.0 mm 0.00 in0.0 mm 0.00 in0.0 mm
12:49 PM 55.5°F13.1°C 82.9°F28.3°C - 15.0 mph WSW24.1 kmh WSW 20.4 mph32.8 kmh 30.22 in1023.4 mb 0.00 in0.0 mm 0.00 in0.0 mm 0.00 in0.0 mm
12:54 PM 55.0°F12.8°C 82.2°F27.9°C - 16.2 mph W26.1 kmh W 19.2 mph30.9 kmh 30.22 in1023.4 mb 0.00 in0.0 mm 0.00 in0.0 mm 0.00 in0.0 mm
12:59 PM 54.7°F12.6°C 82.0°F27.8°C - 15.0 mph WSW24.1 kmh WSW 20.3 mph32.7 kmh 30.22 in1023.4 mb 0.00 in0.0 mm 0.00 in0.0 mm 0.00 in0.0 mm
01:04 PM 54.6°F12.6°C 81.9°F27.7°C - 14.5 mph W23.3 kmh W 17.8 mph28.6 kmh 30.22 in1023.4 mb 0.00 in0.0 mm 0.00 in0.0 mm 0.00 in0.0 mm
01:09 PM 54.3°F12.4°C 81.5°F27.5°C - 14.2 mph WSW22.9 kmh WSW 18.1 mph29.1 kmh 30.22 in1023.4 mb 0.00 in0.0 mm 0.00 in0.0 mm 0.00 in0.0 mm
01:14 PM 54.1°F12.3°C 81.3°F27.4°C - 14.4 mph W23.2 kmh W 19.1 mph30.7 kmh 30.23 in1023.7 mb 0.00 in0.0 mm 0.00 in0.0 mm 0.00 in0.0 mm
01:19 PM 54.0°F12.2°C 81.1°F27.3°C - 12.0 mph W19.3 kmh W 15.1 mph24.3 kmh 30.23 in1023.7 mb 0.00 in0.0 mm 0.00 in0.0 mm 0.00 in0.0 mm
01:24 PM 53.9°F12.2°C 81.1°F27.3°C - 13.5 mph WSW21.7 kmh WSW 16.5 mph26.6 kmh 30.23 in1023.7 mb 0.00 in0.0 mm 0.00 in0.0 mm 0.00 in0.0 mm
01:29 PM 53.7°F12.1°C 80.8°F27.1°C - 13.5 mph WSW21.7 kmh WSW 17.2 mph27.7 kmh 30.23 in1023.7 mb 0.00 in0.0 mm 0.00 in0.0 mm 0.00 in0.0 mm
01:34 PM 53.7°F12.1°C 80.8°F27.1°C - 13.9 mph W22.4 kmh W 17.5 mph28.2 kmh 30.24 in1024.0 mb 0.00 in0.0 mm 0.00 in0.0 mm 0.00 in0.0 mm
01:39 PM 53.6°F12.0°C 80.7°F27.1°C - 7.5 mph W12.1 kmh W 15.2 mph24.5 kmh 30.24 in1024.0 mb 0.00 in0.0 mm 0.00 in0.0 mm 0.00 in0.0 mm
01:44 PM 53.6°F12.0°C 80.6°F27.0°C - 14.2 mph W22.9 kmh W 18.6 mph29.9 kmh 30.24 in1024.0 mb 0.00 in0.0 mm 0.00 in0.0 mm 0.00 in0.0 mm
01:49 PM 53.6°F12.0°C 80.7°F27.1°C - 11.1 mph W17.9 kmh W 13.9 mph22.4 kmh 30.24 in1024.0 mb 0.00 in0.0 mm 0.00 in0.0 mm 0.00 in0.0 mm
01:54 PM 53.7°F12.1°C 80.8°F27.1°C - 13.8 mph WSW22.2 kmh WSW 19.3 mph31.1 kmh 30.23 in1023.7 mb 0.00 in0.0 mm 0.00 in0.0 mm 0.00 in0.0 mm
01:59 PM 53.7°F12.1°C 80.7°F27.1°C - 7.4 mph WSW11.9 kmh WSW 16.5 mph26.6 kmh 30.22 in1023.4 mb 0.00 in0.0 mm 0.00 in0.0 mm 0.00 in0.0 mm
02:04 PM 53.7°F12.1°C 80.8°F27.1°C - 11.5 mph WSW18.5 kmh WSW 14.4 mph23.2 kmh 30.22 in1023.4 mb 0.00 in0.0 mm 0.00 in0.0 mm 0.00 in0.0 mm
02:09 PM 53.8°F12.1°C 81.0°F27.2°C - 0.9 mph W1.4 kmh W 4.4 mph7.1 kmh 30.22 in1023.4 mb 0.00 in0.0 mm 0.00 in0.0 mm 0.00 in0.0 mm
02:14 PM 54.0°F12.2°C 81.2°F27.3°C - 10.6 mph W17.1 kmh W 18.8 mph30.3 kmh 30.21 in1023.0 mb 0.00 in0.0 mm 0.00 in0.0 mm 0.00 in0.0 mm
02:19 PM 54.2°F12.3°C 81.4°F27.4°C - 5.3 mph W8.5 kmh W 16.5 mph26.6 kmh 30.22 in1023.4 mb 0.00 in0.0 mm 0.00 in0.0 mm 0.00 in0.0 mm
02:24 PM 54.2°F12.3°C 81.4°F27.4°C - 2.0 mph WSW3.2 kmh WSW 4.1 mph6.6 kmh 30.22 in1023.4 mb 0.00 in0.0 mm 0.00 in0.0 mm 0.00 in0.0 mm
02:29 PM 54.3°F12.4°C 81.4°F27.4°C - 0.2 mph WSW0.3 kmh WSW 4.3 mph6.9 kmh 30.22 in1023.4 mb 0.00 in0.0 mm 0.00 in0.0 mm 0.00 in0.0 mm
02:35 PM 54.5°F12.5°C 81.7°F27.6°C - Calm Calm 1.0 mph1.6 kmh 30.22 in1023.4 mb 0.00 in0.0 mm 0.00 in0.0 mm 0.00 in0.0 mm
02:39 PM 54.5°F12.5°C 81.7°F27.6°C - 0.4 mph WSW0.6 kmh WSW 2.3 mph3.7 kmh 30.22 in1023.4 mb 0.00 in0.0 mm 0.00 in0.0 mm 0.00 in0.0 mm
02:44 PM 54.5°F12.5°C 81.7°F27.6°C - 0.9 mph W1.4 kmh W 6.0 mph9.7 kmh 30.22 in1023.4 mb 0.00 in0.0 mm 0.00 in0.0 mm 0.00 in0.0 mm
02:49 PM 54.5°F12.5°C 81.6°F27.6°C - 13.3 mph WSW21.4 kmh WSW 18.0 mph29.0 kmh 30.21 in1023.0 mb 0.00 in0.0 mm 0.00 in0.0 mm 0.00 in0.0 mm
02:54 PM 54.5°F12.5°C 81.7°F27.6°C - 14.7 mph WSW23.7 kmh WSW 18.9 mph30.4 kmh 30.22 in1023.4 mb 0.00 in0.0 mm 0.00 in0.0 mm 0.00 in0.0 mm
03:00 PM 54.5°F12.5°C 81.7°F27.6°C - 14.9 mph WSW24.0 kmh WSW 18.0 mph29.0 kmh 30.22 in1023.4 mb 0.00 in0.0 mm 0.00 in0.0 mm 0.00 in0.0 mm
03:04 PM 54.6°F12.6°C 81.9°F27.7°C - 13.1 mph WSW21.1 kmh WSW 16.1 mph25.9 kmh 30.22 in1023.4 mb 0.00 in0.0 mm 0.00 in0.0 mm 0.00 in0.0 mm
03:09 PM 54.7°F12.6°C 82.0°F27.8°C - 10.0 mph SW16.1 kmh SW 12.8 mph20.6 kmh 30.21 in1023.0 mb 0.00 in0.0 mm 0.00 in0.0 mm 0.00 in0.0 mm
03:14 PM 54.7°F12.6°C 82.0°F27.8°C - 10.4 mph WSW16.7 kmh WSW 13.9 mph22.4 kmh 30.21 in1023.0 mb 0.00 in0.0 mm 0.00 in0.0 mm 0.00 in0.0 mm
03:19 PM 54.9°F12.7°C 82.2°F27.9°C - 10.0 mph WSW16.1 kmh WSW 13.9 mph22.4 kmh 30.20 in1022.7 mb 0.00 in0.0 mm 0.00 in0.0 mm 0.00 in0.0 mm
03:24 PM 55.0°F12.8°C 82.3°F27.9°C - 9.4 mph SW15.1 kmh SW 12.6 mph20.3 kmh 30.20 in1022.7 mb 0.00 in0.0 mm 0.00 in0.0 mm 0.00 in0.0 mm
03:30 PM 55.1°F12.8°C 82.4°F28.0°C - 9.4 mph SW15.1 kmh SW 12.5 mph20.1 kmh 30.20 in1022.7 mb 0.00 in0.0 mm 0.00 in0.0 mm 0.00 in0.0 mm
03:34 PM 55.2°F12.9°C 82.5°F28.1°C - 11.1 mph WSW17.9 kmh WSW 15.4 mph24.8 kmh 30.20 in1022.7 mb 0.00 in0.0 mm 0.00 in0.0 mm 0.00 in0.0 mm
03:39 PM 55.2°F12.9°C 82.5°F28.1°C - 9.8 mph WSW15.8 kmh WSW 13.4 mph21.6 kmh 30.20 in1022.7 mb 0.00 in0.0 mm 0.00 in0.0 mm 0.00 in0.0 mm
03:44 PM 55.2°F12.9°C 82.4°F28.0°C - 8.2 mph WSW13.2 kmh WSW 11.1 mph17.9 kmh 30.20 in1022.7 mb 0.00 in0.0 mm 0.00 in0.0 mm 0.00 in0.0 mm
03:49 PM 55.4°F13.0°C 82.8°F28.2°C - 9.2 mph WSW14.8 kmh WSW 12.4 mph20.0 kmh 30.20 in1022.7 mb 0.00 in0.0 mm 0.00 in0.0 mm 0.00 in0.0 mm
03:54 PM 55.5°F13.1°C 82.8°F28.2°C - 9.4 mph WSW15.1 kmh WSW 12.4 mph20.0 kmh 30.21 in1023.0 mb 0.00 in0.0 mm 0.00 in0.0 mm 0.00 in0.0 mm
04:00 PM 55.5°F13.1°C 82.8°F28.2°C - 9.0 mph SW14.5 kmh SW 12.1 mph19.5 kmh 30.20 in1022.7 mb 0.00 in0.0 mm 0.00 in0.0 mm 0.00 in0.0 mm
04:04 PM 55.5°F13.1°C 82.9°F28.3°C - 9.5 mph WSW15.3 kmh WSW 12.8 mph20.6 kmh 30.20 in1022.7 mb 0.00 in0.0 mm 0.00 in0.0 mm 0.00 in0.0 mm
04:09 PM 55.6°F13.1°C 83.0°F28.3°C - 9.7 mph WSW15.6 kmh WSW 12.6 mph20.3 kmh 30.20 in1022.7 mb 0.00 in0.0 mm 0.00 in0.0 mm 0.00 in0.0 mm
04:14 PM 55.7°F13.2°C 83.1°F28.4°C - 8.5 mph SW13.7 kmh SW 12.4 mph20.0 kmh 30.20 in1022.7 mb 0.00 in0.0 mm 0.00 in0.0 mm 0.00 in0.0 mm
04:19 PM 55.7°F13.2°C 83.1°F28.4°C - 9.4 mph SW15.1 kmh SW 12.1 mph19.5 kmh 30.20 in1022.7 mb 0.00 in0.0 mm 0.00 in0.0 mm 0.00 in0.0 mm
04:24 PM 55.7°F13.2°C 83.1°F28.4°C - 9.2 mph WSW14.8 kmh WSW 12.8 mph20.6 kmh 30.20 in1022.7 mb 0.00 in0.0 mm 0.00 in0.0 mm 0.00 in0.0 mm
04:30 PM 55.8°F13.2°C 83.1°F28.4°C - 8.3 mph WSW13.4 kmh WSW 11.4 mph18.3 kmh 30.20 in1022.7 mb 0.00 in0.0 mm 0.00 in0.0 mm 0.00 in0.0 mm
04:34 PM 55.9°F13.3°C 83.2°F28.4°C - 8.7 mph WSW14.0 kmh WSW 11.5 mph18.5 kmh 30.20 in1022.7 mb 0.00 in0.0 mm 0.00 in0.0 mm 0.00 in0.0 mm
04:39 PM 56.2°F13.4°C 83.7°F28.7°C - 8.3 mph WSW13.4 kmh WSW 11.0 mph17.7 kmh 30.20 in1022.7 mb 0.00 in0.0 mm 0.00 in0.0 mm 0.01 in0.3 mm
04:44 PM 56.2°F13.4°C 83.7°F28.7°C - 10.0 mph SW16.1 kmh SW 13.1 mph21.1 kmh 30.20 in1022.7 mb 0.00 in0.0 mm 0.00 in0.0 mm 0.01 in0.3 mm
04:49 PM 56.3°F13.5°C 83.7°F28.7°C - 8.4 mph SW13.5 kmh SW 10.9 mph17.5 kmh 30.21 in1023.0 mb 0.00 in0.0 mm 0.00 in0.0 mm 0.01 in0.3 mm
04:55 PM 56.4°F13.6°C 83.9°F28.8°C - 9.3 mph SW15.0 kmh SW 12.4 mph20.0 kmh 30.20 in1022.7 mb 0.00 in0.0 mm 0.00 in0.0 mm 0.01 in0.3 mm
04:59 PM 56.3°F13.5°C 83.8°F28.8°C - 8.7 mph WSW14.0 kmh WSW 11.0 mph17.7 kmh 30.20 in1022.7 mb 0.00 in0.0 mm 0.00 in0.0 mm 0.01 in0.3 mm
05:04 PM 56.2°F13.4°C 83.7°F28.7°C - 7.7 mph WSW12.4 kmh WSW 10.3 mph16.6 kmh 30.21 in1023.0 mb 0.00 in0.0 mm 0.00 in0.0 mm 0.02 in0.5 mm
05:09 PM 56.2°F13.4°C 83.7°F28.7°C - 7.0 mph WSW11.3 kmh WSW 9.4 mph15.1 kmh 30.20 in1022.7 mb 0.00 in0.0 mm 0.00 in0.0 mm 0.02 in0.5 mm
05:14 PM 56.2°F13.4°C 83.7°F28.7°C - 8.9 mph SW14.3 kmh SW 12.6 mph20.3 kmh 30.20 in1022.7 mb 0.00 in0.0 mm 0.00 in0.0 mm 0.02 in0.5 mm
05:19 PM 56.1°F13.4°C 83.5°F28.6°C - 10.4 mph SW16.7 kmh SW 14.2 mph22.9 kmh 30.20 in1022.7 mb 0.00 in0.0 mm 0.00 in0.0 mm 0.03 in0.8 mm
05:24 PM 56.0°F13.3°C 83.4°F28.6°C - 9.3 mph SW15.0 kmh SW 12.7 mph20.4 kmh 30.20 in1022.7 mb 0.00 in0.0 mm 0.00 in0.0 mm 0.03 in0.8 mm
05:29 PM 56.0°F13.3°C 83.3°F28.5°C - 8.0 mph SW12.9 kmh SW 11.0 mph17.7 kmh 30.20 in1022.7 mb 0.00 in0.0 mm 0.00 in0.0 mm 0.03 in0.8 mm
05:35 PM 55.8°F13.2°C 83.1°F28.4°C - 9.4 mph SW15.1 kmh SW 12.0 mph19.3 kmh 30.21 in1023.0 mb 0.00 in0.0 mm 0.00 in0.0 mm 0.03 in0.8 mm
05:39 PM 55.8°F13.2°C 83.1°F28.4°C - 9.4 mph WSW15.1 kmh WSW 12.4 mph20.0 kmh 30.20 in1022.7 mb 0.00 in0.0 mm 0.00 in0.0 mm 0.03 in0.8 mm
05:44 PM 55.8°F13.2°C 83.1°F28.4°C - 8.6 mph WSW13.8 kmh WSW 10.8 mph17.4 kmh 30.21 in1023.0 mb 0.00 in0.0 mm 0.00 in0.0 mm 0.04 in1.0 mm
05:49 PM 55.9°F13.3°C 83.3°F28.5°C - 7.4 mph WSW11.9 kmh WSW 9.2 mph14.8 kmh 30.21 in1023.0 mb 0.00 in0.0 mm 0.00 in0.0 mm 0.04 in1.0 mm
05:54 PM 56.1°F13.4°C 83.5°F28.6°C - 8.1 mph WSW13.0 kmh WSW 10.5 mph16.9 kmh 30.21 in1023.0 mb 0.00 in0.0 mm 0.00 in0.0 mm 0.04 in1.0 mm
05:59 PM 56.1°F13.4°C 83.5°F28.6°C - 7.2 mph WSW11.6 kmh WSW 9.5 mph15.3 kmh 30.21 in1023.0 mb 0.00 in0.0 mm 0.00 in0.0 mm 0.05 in1.3 mm
06:04 PM 56.1°F13.4°C 83.5°F28.6°C - 7.7 mph WSW12.4 kmh WSW 9.8 mph15.8 kmh 30.21 in1023.0 mb 0.00 in0.0 mm 0.00 in0.0 mm 0.05 in1.3 mm
06:09 PM 56.1°F13.4°C 83.5°F28.6°C - 6.9 mph SW11.1 kmh SW 8.6 mph13.8 kmh 30.21 in1023.0 mb 0.00 in0.0 mm 0.00 in0.0 mm 0.06 in1.5 mm
06:14 PM 56.2°F13.4°C 83.7°F28.7°C - 6.2 mph WSW10.0 kmh WSW 8.0 mph12.9 kmh 30.21 in1023.0 mb 0.00 in0.0 mm 0.00 in0.0 mm 0.06 in1.5 mm
06:19 PM 56.2°F13.4°C 83.7°F28.7°C - 6.6 mph WSW10.6 kmh WSW 9.0 mph14.5 kmh 30.21 in1023.0 mb 0.00 in0.0 mm 0.00 in0.0 mm 0.06 in1.5 mm
06:24 PM 56.2°F13.4°C 83.7°F28.7°C - 7.9 mph SW12.7 kmh SW 9.7 mph15.6 kmh 30.21 in1023.0 mb 0.00 in0.0 mm 0.00 in0.0 mm 0.06 in1.5 mm
06:29 PM 56.2°F13.4°C 83.5°F28.6°C - 6.6 mph WSW10.6 kmh WSW 8.8 mph14.2 kmh 30.21 in1023.0 mb 0.00 in0.0 mm 0.00 in0.0 mm 0.06 in1.5 mm
06:34 PM 56.4°F13.6°C 83.9°F28.8°C - 6.4 mph SW10.3 kmh SW 7.8 mph12.6 kmh 30.21 in1023.0 mb 0.00 in0.0 mm 0.00 in0.0 mm 0.07 in1.8 mm
06:40 PM 56.2°F13.4°C 83.7°F28.7°C - 7.7 mph WSW12.4 kmh WSW 9.9 mph15.9 kmh 30.20 in1022.7 mb 0.00 in0.0 mm 0.00 in0.0 mm 0.07 in1.8 mm
06:44 PM 56.2°F13.4°C 83.7°F28.7°C - 6.9 mph SW11.1 kmh SW 9.2 mph14.8 kmh 30.20 in1022.7 mb 0.00 in0.0 mm 0.00 in0.0 mm 0.07 in1.8 mm
06:49 PM 56.2°F13.4°C 83.7°F28.7°C - 6.6 mph SW10.6 kmh SW 8.1 mph13.0 kmh 30.20 in1022.7 mb 0.00 in0.0 mm 0.00 in0.0 mm 0.07 in1.8 mm
06:54 PM 56.3°F13.5°C 83.7°F28.7°C - 6.0 mph WSW9.7 kmh WSW 8.2 mph13.2 kmh 30.21 in1023.0 mb 0.00 in0.0 mm 0.00 in0.0 mm 0.07 in1.8 mm
06:59 PM 56.5°F13.6°C 83.9°F28.8°C - 7.0 mph WSW11.3 kmh WSW 8.3 mph13.4 kmh 30.21 in1023.0 mb 0.00 in0.0 mm 0.00 in0.0 mm 0.07 in1.8 mm
07:04 PM 56.6°F13.7°C 84.1°F28.9°C - 6.3 mph SW10.1 kmh SW 8.3 mph13.4 kmh 30.21 in1023.0 mb 0.00 in0.0 mm 0.00 in0.0 mm 0.07 in1.8 mm
07:09 PM 56.5°F13.6°C 84.0°F28.9°C - 5.4 mph WSW8.7 kmh WSW 7.4 mph11.9 kmh 30.21 in1023.0 mb 0.00 in0.0 mm 0.00 in0.0 mm 0.07 in1.8 mm
07:15 PM 56.5°F13.6°C 83.9°F28.8°C - 4.9 mph WSW7.9 kmh WSW 6.2 mph10.0 kmh 30.21 in1023.0 mb 0.00 in0.0 mm 0.00 in0.0 mm 0.07 in1.8 mm
07:19 PM 56.3°F13.5°C 83.7°F28.7°C - 5.2 mph WSW8.4 kmh WSW 6.2 mph10.0 kmh 30.21 in1023.0 mb 0.00 in0.0 mm 0.00 in0.0 mm 0.07 in1.8 mm
07:24 PM 56.3°F13.5°C 83.7°F28.7°C - 5.7 mph SW9.2 kmh SW 6.4 mph10.3 kmh 30.21 in1023.0 mb 0.00 in0.0 mm 0.00 in0.0 mm 0.07 in1.8 mm
07:29 PM 56.3°F13.5°C 83.7°F28.7°C - 6.1 mph SW9.8 kmh SW 7.3 mph11.7 kmh 30.21 in1023.0 mb 0.00 in0.0 mm 0.00 in0.0 mm 0.07 in1.8 mm
07:34 PM 56.3°F13.5°C 83.8°F28.8°C - 5.4 mph SW8.7 kmh SW 6.5 mph10.5 kmh 30.21 in1023.0 mb 0.00 in0.0 mm 0.00 in0.0 mm 0.07 in1.8 mm
07:39 PM 56.4°F13.6°C 83.9°F28.8°C - 6.3 mph SW10.1 kmh SW 7.2 mph11.6 kmh 30.21 in1023.0 mb 0.00 in0.0 mm 0.00 in0.0 mm 0.07 in1.8 mm
07:44 PM 56.5°F13.6°C 83.9°F28.8°C - 6.4 mph SW10.3 kmh SW 7.8 mph12.6 kmh 30.21 in1023.0 mb 0.00 in0.0 mm 0.00 in0.0 mm 0.07 in1.8 mm
07:49 PM 56.5°F13.6°C 83.9°F28.8°C - 6.0 mph SW9.7 kmh SW 7.1 mph11.4 kmh 30.21 in1023.0 mb 0.00 in0.0 mm 0.00 in0.0 mm 0.07 in1.8 mm
07:54 PM 56.7°F13.7°C 84.2°F29.0°C - 5.9 mph SW9.5 kmh SW 6.9 mph11.1 kmh 30.21 in1023.0 mb 0.00 in0.0 mm 0.00 in0.0 mm 0.07 in1.8 mm
08:00 PM 56.7°F13.7°C 84.2°F29.0°C - 5.7 mph SSW9.2 kmh SSW 7.0 mph11.3 kmh 30.20 in1022.7 mb 0.00 in0.0 mm 0.00 in0.0 mm 0.07 in1.8 mm
08:05 PM 56.6°F13.7°C 84.1°F28.9°C - 5.0 mph SW8.0 kmh SW 7.1 mph11.4 kmh 30.20 in1022.7 mb 0.00 in0.0 mm 0.00 in0.0 mm 0.07 in1.8 mm
08:09 PM 56.6°F13.7°C 84.1°F28.9°C - 6.0 mph SW9.7 kmh SW 7.0 mph11.3 kmh 30.21 in1023.0 mb 0.00 in0.0 mm 0.00 in0.0 mm 0.07 in1.8 mm
08:14 PM 56.7°F13.7°C 84.2°F29.0°C - 5.6 mph WSW9.0 kmh WSW 6.9 mph11.1 kmh 30.20 in1022.7 mb 0.00 in0.0 mm 0.00 in0.0 mm 0.07 in1.8 mm
08:19 PM 56.8°F13.8°C 84.2°F29.0°C - 5.4 mph SW8.7 kmh SW 6.4 mph10.3 kmh 30.20 in1022.7 mb 0.00 in0.0 mm 0.00 in0.0 mm 0.07 in1.8 mm
08:25 PM 56.9°F13.8°C 84.4°F29.1°C - 5.6 mph WSW9.0 kmh WSW 6.6 mph10.6 kmh 30.21 in1023.0 mb 0.00 in0.0 mm 0.00 in0.0 mm 0.07 in1.8 mm
08:29 PM 56.9°F13.8°C 84.4°F29.1°C - 5.2 mph WSW8.4 kmh WSW 6.9 mph11.1 kmh 30.21 in1023.0 mb 0.00 in0.0 mm 0.00 in0.0 mm 0.07 in1.8 mm
08:34 PM 56.9°F13.8°C 84.4°F29.1°C - 5.7 mph WSW9.2 kmh WSW 7.4 mph11.9 kmh 30.21 in1023.0 mb 0.00 in0.0 mm 0.00 in0.0 mm 0.07 in1.8 mm
08:39 PM 57.0°F13.9°C 84.6°F29.2°C - 5.4 mph WSW8.7 kmh WSW 6.9 mph11.1 kmh 30.21 in1023.0 mb 0.00 in0.0 mm 0.00 in0.0 mm 0.07 in1.8 mm
08:45 PM 57.1°F13.9°C 84.7°F29.3°C - 4.9 mph SW7.9 kmh SW 6.7 mph10.8 kmh 30.21 in1023.0 mb 0.00 in0.0 mm 0.00 in0.0 mm 0.07 in1.8 mm
08:49 PM 57.0°F13.9°C 84.6°F29.2°C - 5.6 mph WSW9.0 kmh WSW 7.0 mph11.3 kmh 30.21 in1023.0 mb 0.00 in0.0 mm 0.00 in0.0 mm 0.07 in1.8 mm
08:54 PM 57.0°F13.9°C 84.6°F29.2°C - 4.4 mph WSW7.1 kmh WSW 5.8 mph9.3 kmh 30.21 in1023.0 mb 0.00 in0.0 mm 0.00 in0.0 mm 0.07 in1.8 mm
09:00 PM 57.0°F13.9°C 84.4°F29.1°C - 4.4 mph WNW7.1 kmh WNW 5.7 mph9.2 kmh 30.21 in1023.0 mb 0.00 in0.0 mm 0.00 in0.0 mm 0.07 in1.8 mm
09:04 PM 57.1°F13.9°C 84.7°F29.3°C - 6.2 mph WNW10.0 kmh WNW 8.0 mph12.9 kmh 30.20 in1022.7 mb 0.00 in0.0 mm 0.00 in0.0 mm 0.07 in1.8 mm
09:09 PM 57.1°F13.9°C 84.6°F29.2°C - 4.3 mph W6.9 kmh W 5.1 mph8.2 kmh 30.20 in1022.7 mb 0.00 in0.0 mm 0.00 in0.0 mm 0.07 in1.8 mm
09:14 PM 57.1°F13.9°C 84.7°F29.3°C - 4.2 mph WSW6.8 kmh WSW 5.0 mph8.0 kmh 30.20 in1022.7 mb 0.00 in0.0 mm 0.00 in0.0 mm 0.07 in1.8 mm
09:19 PM 57.0°F13.9°C 84.4°F29.1°C - 4.0 mph WSW6.4 kmh WSW 5.1 mph8.2 kmh 30.21 in1023.0 mb 0.00 in0.0 mm 0.00 in0.0 mm 0.07 in1.8 mm
09:24 PM 57.1°F13.9°C 84.7°F29.3°C - 3.8 mph WSW6.1 kmh WSW 4.7 mph7.6 kmh 30.21 in1023.0 mb 0.00 in0.0 mm 0.00 in0.0 mm 0.07 in1.8 mm
09:29 PM 57.1°F13.9°C 84.7°F29.3°C - 3.6 mph WSW5.8 kmh WSW 4.5 mph7.2 kmh 30.21 in1023.0 mb 0.00 in0.0 mm 0.00 in0.0 mm 0.07 in1.8 mm
09:34 PM 57.2°F14.0°C 84.8°F29.3°C - 3.5 mph WSW5.6 kmh WSW 4.3 mph6.9 kmh 30.21 in1023.0 mb 0.00 in0.0 mm 0.00 in0.0 mm 0.07 in1.8 mm
09:39 PM 57.2°F14.0°C 84.8°F29.3°C - 4.5 mph SW7.2 kmh SW 5.1 mph8.2 kmh 30.21 in1023.0 mb 0.00 in0.0 mm 0.00 in0.0 mm 0.07 in1.8 mm
09:44 PM 57.2°F14.0°C 84.8°F29.3°C - 3.9 mph WSW6.3 kmh WSW 4.6 mph7.4 kmh 30.21 in1023.0 mb 0.00 in0.0 mm 0.00 in0.0 mm 0.07 in1.8 mm
09:49 PM 57.1°F13.9°C 84.7°F29.3°C - 5.5 mph SW8.9 kmh SW 6.2 mph10.0 kmh 30.21 in1023.0 mb 0.00 in0.0 mm 0.00 in0.0 mm 0.07 in1.8 mm
09:54 PM 57.0°F13.9°C 84.6°F29.2°C - 4.4 mph SW7.1 kmh SW 5.3 mph8.5 kmh 30.21 in1023.0 mb 0.00 in0.0 mm 0.00 in0.0 mm 0.07 in1.8 mm
09:59 PM 57.0°F13.9°C 84.6°F29.2°C - 2.9 mph WSW4.7 kmh WSW 3.8 mph6.1 kmh 30.21 in1023.0 mb 0.00 in0.0 mm 0.00 in0.0 mm 0.07 in1.8 mm
10:04 PM 56.9°F13.8°C 84.3°F29.1°C - 3.9 mph SW6.3 kmh SW 5.0 mph8.0 kmh 30.20 in1022.7 mb 0.00 in0.0 mm 0.00 in0.0 mm 0.07 in1.8 mm
10:09 PM 56.7°F13.7°C 84.1°F28.9°C - 3.8 mph SW6.1 kmh SW 4.9 mph7.9 kmh 30.20 in1022.7 mb 0.00 in0.0 mm 0.00 in0.0 mm 0.07 in1.8 mm
10:15 PM 56.7°F13.7°C 84.2°F29.0°C - 4.6 mph WSW7.4 kmh WSW 5.7 mph9.2 kmh 30.21 in1023.0 mb 0.00 in0.0 mm 0.00 in0.0 mm 0.07 in1.8 mm
10:19 PM 56.7°F13.7°C 84.1°F28.9°C - 5.0 mph WSW8.0 kmh WSW 6.0 mph9.7 kmh 30.21 in1023.0 mb 0.00 in0.0 mm 0.00 in0.0 mm 0.07 in1.8 mm
10:24 PM 56.6°F13.7°C 84.0°F28.9°C - 5.3 mph WSW8.5 kmh WSW 6.2 mph10.0 kmh 30.21 in1023.0 mb 0.00 in0.0 mm 0.00 in0.0 mm 0.07 in1.8 mm
10:29 PM 56.6°F13.7°C 84.1°F28.9°C - 5.7 mph W9.2 kmh W 6.8 mph10.9 kmh 30.21 in1023.0 mb 0.00 in0.0 mm 0.00 in0.0 mm 0.07 in1.8 mm
10:34 PM 56.5°F13.6°C 83.9°F28.8°C - 5.4 mph WSW8.7 kmh WSW 6.6 mph10.6 kmh 30.21 in1023.0 mb 0.00 in0.0 mm 0.00 in0.0 mm 0.07 in1.8 mm
10:39 PM 56.6°F13.7°C 84.1°F28.9°C - 5.7 mph WSW9.2 kmh WSW 6.7 mph10.8 kmh 30.21 in1023.0 mb 0.00 in0.0 mm 0.00 in0.0 mm 0.07 in1.8 mm
10:44 PM 56.5°F13.6°C 83.9°F28.8°C - 5.6 mph WSW9.0 kmh WSW 7.0 mph11.3 kmh 30.21 in1023.0 mb 0.00 in0.0 mm 0.00 in0.0 mm 0.07 in1.8 mm
10:49 PM 56.5°F13.6°C 84.0°F28.9°C - 5.1 mph WSW8.2 kmh WSW 6.3 mph10.1 kmh 30.21 in1023.0 mb 0.00 in0.0 mm 0.00 in0.0 mm 0.07 in1.8 mm
10:54 PM 56.5°F13.6°C 84.0°F28.9°C - 5.0 mph WSW8.0 kmh WSW 6.4 mph10.3 kmh 30.21 in1023.0 mb 0.00 in0.0 mm 0.00 in0.0 mm 0.07 in1.8 mm
10:59 PM 56.6°F13.7°C 84.1°F28.9°C - 4.9 mph WSW7.9 kmh WSW 6.3 mph10.1 kmh 30.21 in1023.0 mb 0.00 in0.0 mm 0.00 in0.0 mm 0.07 in1.8 mm
11:04 PM 56.5°F13.6°C 84.0°F28.9°C - 4.6 mph WSW7.4 kmh WSW 5.9 mph9.5 kmh 30.20 in1022.7 mb 0.00 in0.0 mm 0.00 in0.0 mm 0.07 in1.8 mm
11:09 PM 56.5°F13.6°C 84.0°F28.9°C - 4.0 mph WSW6.4 kmh WSW 4.8 mph7.7 kmh 30.20 in1022.7 mb 0.00 in0.0 mm 0.00 in0.0 mm 0.07 in1.8 mm
11:14 PM 56.5°F13.6°C 84.0°F28.9°C - 4.0 mph WSW6.4 kmh WSW 5.0 mph8.0 kmh 30.20 in1022.7 mb 0.00 in0.0 mm 0.00 in0.0 mm 0.07 in1.8 mm
11:19 PM 56.5°F13.6°C 84.0°F28.9°C - 6.1 mph SW9.8 kmh SW 7.1 mph11.4 kmh 30.20 in1022.7 mb 0.00 in0.0 mm 0.00 in0.0 mm 0.07 in1.8 mm
11:24 PM 56.6°F13.7°C 84.0°F28.9°C - 6.5 mph SW10.5 kmh SW 7.6 mph12.2 kmh 30.20 in1022.7 mb 0.00 in0.0 mm 0.00 in0.0 mm 0.07 in1.8 mm
11:29 PM 56.7°F13.7°C 84.1°F28.9°C - 5.7 mph WSW9.2 kmh WSW 6.7 mph10.8 kmh 30.20 in1022.7 mb 0.00 in0.0 mm 0.00 in0.0 mm 0.07 in1.8 mm
11:34 PM 56.7°F13.7°C 84.2°F29.0°C - 5.1 mph WSW8.2 kmh WSW 6.6 mph10.6 kmh 30.20 in1022.7 mb 0.00 in0.0 mm 0.00 in0.0 mm 0.07 in1.8 mm
11:39 PM 56.7°F13.7°C 84.2°F29.0°C - 5.3 mph WSW8.5 kmh WSW 6.1 mph9.8 kmh 30.19 in1022.4 mb 0.00 in0.0 mm 0.00 in0.0 mm 0.07 in1.8 mm
11:44 PM 56.8°F13.8°C 84.2°F29.0°C - 5.1 mph SW8.2 kmh SW 6.3 mph10.1 kmh 30.19 in1022.4 mb 0.00 in0.0 mm 0.00 in0.0 mm 0.07 in1.8 mm
11:49 PM 56.8°F13.8°C 84.3°F29.1°C - 4.8 mph WSW7.7 kmh WSW 6.0 mph9.7 kmh 30.19 in1022.4 mb 0.00 in0.0 mm 0.00 in0.0 mm 0.07 in1.8 mm
11:55 PM 56.7°F13.7°C 84.1°F28.9°C - 5.4 mph WSW8.7 kmh WSW 6.9 mph11.1 kmh 30.19 in1022.4 mb 0.00 in0.0 mm 0.00 in0.0 mm 0.07 in1.8 mm